Time;durP1;ratioP1;P1;durP2;ratioP2;P2;SDS_P1;SDS_P2;PMS_P1;PMS_P2;Temp;Humidity;BMP_temperature;BMP_pressure;BME280_temperature;BME280_humidity;BME280_pressure;Samples;Min_cycle;Max_cycle;Signal;HPM_P1;HPM_P2
2023/12/16 00:01:06;0.00;0.00;0.62;0.00;0.00;0.62;6.30;5.17;;;21.20;27.40;;;;;;2260263;61;20381;-58
2023/12/16 00:03:51;0.00;0.00;0.62;0.00;0.00;0.62;6.20;4.77;;;21.20;27.40;;;;;;2260299;61;20368;-61
2023/12/16 00:06:36;0.00;0.00;0.62;0.00;0.00;0.62;6.37;5.50;;;21.20;27.40;;;;;;2260683;61;20385;-55
2023/12/16 00:09:22;0.00;0.00;0.62;0.00;0.00;0.62;6.90;5.47;;;21.20;27.40;;;;;;2260393;61;20373;-59
2023/12/16 00:12:07;0.00;0.00;0.62;0.00;0.00;0.62;7.10;5.37;;;21.20;27.50;;;;;;2260204;61;20399;-58
2023/12/16 00:14:51;0.00;0.00;0.62;0.00;0.00;0.62;4.87;4.20;;;21.20;27.40;;;;;;2261381;61;20412;-56
2023/12/16 00:17:36;0.00;0.00;0.62;0.00;0.00;0.62;6.27;4.73;;;21.20;27.40;;;;;;2259996;61;20360;-60
2023/12/16 00:20:21;0.00;0.00;0.62;0.00;0.00;0.62;6.83;5.10;;;21.20;27.40;;;;;;2260224;61;20397;-56
2023/12/16 00:23:05;0.00;0.00;0.62;0.00;0.00;0.62;7.80;5.70;;;21.20;27.40;;;;;;2259491;61;20411;-54
2023/12/16 00:25:51;0.00;0.00;0.62;0.00;0.00;0.62;5.27;4.70;;;21.20;27.40;;;;;;2260179;61;20444;-54
2023/12/16 00:28:36;0.00;0.00;0.62;0.00;0.00;0.62;4.20;3.80;;;21.20;27.40;;;;;;2260092;61;20757;-52
2023/12/16 00:31:21;0.00;0.00;0.62;0.00;0.00;0.62;4.07;3.67;;;21.20;27.50;;;;;;2260222;61;20523;-63
2023/12/16 00:34:06;0.00;0.00;0.62;0.00;0.00;0.62;4.80;4.30;;;21.20;27.40;;;;;;2260418;61;20364;-55
2023/12/16 00:36:51;0.00;0.00;0.62;0.00;0.00;0.62;6.17;4.30;;;21.20;27.40;;;;;;2260591;61;20372;-55
2023/12/16 00:39:35;0.00;0.00;0.62;0.00;0.00;0.62;5.00;4.50;;;21.20;27.50;;;;;;2260148;61;20459;-57
2023/12/16 00:42:21;0.00;0.00;0.62;0.00;0.00;0.62;5.03;4.07;;;21.20;27.40;;;;;;2260168;61;20408;-59
2023/12/16 00:45:07;0.00;0.00;0.62;0.00;0.00;0.62;4.60;3.63;;;21.20;27.40;;;;;;2259947;61;20847;-59
2023/12/16 00:47:51;0.00;0.00;0.62;0.00;0.00;0.62;5.53;4.23;;;21.20;27.40;;;;;;2260619;61;20812;-54
2023/12/16 00:50:38;0.00;0.00;0.62;0.00;0.00;0.62;5.27;3.87;;;21.20;27.50;;;;;;2260469;61;20788;-59
2023/12/16 00:53:22;0.00;0.00;0.62;0.00;0.00;0.62;4.20;3.53;;;21.20;27.40;;;;;;2259892;61;20408;-58
2023/12/16 00:56:09;0.00;0.00;0.62;0.00;0.00;0.62;4.77;3.70;;;21.20;27.40;;;;;;2260313;61;20412;-56
2023/12/16 00:58:56;0.00;0.00;0.62;0.00;0.00;0.62;5.40;3.50;;;21.20;27.50;;;;;;2260624;61;20385;-54
2023/12/16 01:01:42;0.00;0.00;0.62;0.00;0.00;0.62;4.70;3.93;;;21.20;27.40;;;;;;2259759;61;20820;-57
2023/12/16 01:04:27;0.00;0.00;0.62;0.00;0.00;0.62;5.37;4.03;;;21.20;27.40;;;;;;2260500;61;20415;-60
2023/12/16 01:07:11;0.00;0.00;0.62;0.00;0.00;0.62;4.73;3.17;;;21.20;27.40;;;;;;2260132;61;20638;-56
2023/12/16 01:09:56;0.00;0.00;0.62;0.00;0.00;0.62;5.50;3.93;;;21.20;27.40;;;;;;2260432;61;20404;-58
2023/12/16 01:12:41;0.00;0.00;0.62;0.00;0.00;0.62;6.20;3.60;;;21.20;27.40;;;;;;2260213;61;20365;-57
2023/12/16 01:15:27;0.00;0.00;0.62;0.00;0.00;0.62;4.17;3.50;;;21.20;27.40;;;;;;2260924;61;20396;-57
2023/12/16 01:18:12;0.00;0.00;0.62;0.00;0.00;0.62;4.60;4.00;;;21.20;27.40;;;;;;2260386;61;20372;-59
2023/12/16 01:20:57;0.00;0.00;0.62;0.00;0.00;0.62;4.43;3.63;;;21.20;27.40;;;;;;2260372;61;20940;-55
2023/12/16 01:23:41;0.00;0.00;0.62;0.00;0.00;0.62;4.93;3.83;;;21.20;27.50;;;;;;2259650;61;20877;-58
2023/12/16 01:26:26;0.00;0.00;0.62;0.00;0.00;0.62;5.77;4.20;;;21.20;27.50;;;;;;2260382;61;20401;-58
2023/12/16 01:29:10;0.00;0.00;0.62;0.00;0.00;0.62;4.30;3.50;;;21.20;27.40;;;;;;2260162;61;20380;-57
2023/12/16 01:31:57;0.00;0.00;0.62;0.00;0.00;0.62;4.90;3.90;;;21.20;27.40;;;;;;2260214;61;20598;-56
2023/12/16 01:34:41;0.00;0.00;0.62;0.00;0.00;0.62;5.33;4.00;;;21.20;27.40;;;;;;2260283;61;20372;-60
2023/12/16 01:37:26;0.00;0.00;0.62;0.00;0.00;0.62;5.27;3.70;;;21.20;27.50;;;;;;2259912;61;20365;-59
2023/12/16 01:40:12;0.00;0.00;0.62;0.00;0.00;0.62;3.90;3.40;;;21.20;27.40;;;;;;2260109;61;20412;-58
2023/12/16 01:42:56;0.00;0.00;0.62;0.00;0.00;0.62;5.10;4.00;;;21.20;27.40;;;;;;2259882;61;20897;-56
2023/12/16 01:45:41;0.00;0.00;0.62;0.00;0.00;0.62;4.27;3.60;;;21.20;27.80;;;;;;2259763;61;20947;-54
2023/12/16 01:48:27;0.00;0.00;0.62;0.00;0.00;0.62;3.80;3.40;;;21.20;27.40;;;;;;2260128;61;20461;-55
2023/12/16 01:51:14;0.00;0.00;0.62;0.00;0.00;0.62;4.07;3.67;;;21.20;27.50;;;;;;2260276;61;20419;-57
2023/12/16 01:53:59;0.00;0.00;0.62;0.00;0.00;0.62;5.00;2.97;;;21.20;27.40;;;;;;2260198;61;20388;-57
2023/12/16 01:56:52;0.00;0.00;0.62;0.00;0.00;0.62;3.70;3.27;;;21.20;27.40;;;;;;2260316;61;20357;-57
2023/12/16 01:59:37;0.00;0.00;0.62;0.00;0.00;0.62;4.00;3.43;;;21.20;27.40;;;;;;2260627;61;20420;-57
2023/12/16 02:02:24;0.00;0.00;0.62;0.00;0.00;0.62;3.43;2.70;;;21.20;27.40;;;;;;2260694;61;20360;-58
2023/12/16 02:05:10;0.00;0.00;0.62;0.00;0.00;0.62;3.87;2.80;;;21.20;27.40;;;;;;2261284;61;20999;-57
2023/12/16 02:07:55;0.00;0.00;0.62;0.00;0.00;0.62;3.23;2.90;;;21.20;27.40;;;;;;2261462;61;20373;-55
2023/12/16 02:10:40;0.00;0.00;0.62;0.00;0.00;0.62;3.93;3.20;;;21.20;27.40;;;;;;2261689;61;20380;-56
2023/12/16 02:13:24;0.00;0.00;0.62;0.00;0.00;0.62;4.00;3.50;;;21.20;27.40;;;;;;2261095;61;20360;-55
2023/12/16 02:16:10;0.00;0.00;0.62;0.00;0.00;0.62;4.73;3.33;;;21.20;27.40;;;;;;2383454;53;20409;-58
2023/12/16 02:18:54;0.00;0.00;0.62;0.00;0.00;0.62;3.93;3.00;;;21.20;27.50;;;;;;2256892;61;20940;-55
2023/12/16 02:21:40;0.00;0.00;0.62;0.00;0.00;0.62;4.10;3.27;;;21.20;27.40;;;;;;2256873;61;20389;-59
2023/12/16 02:24:28;0.00;0.00;0.62;0.00;0.00;0.62;3.70;3.30;;;21.20;27.40;;;;;;2257576;61;20370;-57
2023/12/16 02:27:13;0.00;0.00;0.62;0.00;0.00;0.62;3.00;2.63;;;21.20;27.40;;;;;;2257634;61;20890;-56
2023/12/16 02:29:57;0.00;0.00;0.62;0.00;0.00;0.62;5.20;3.47;;;21.20;27.40;;;;;;2257344;61;20361;-55
2023/12/16 02:32:42;0.00;0.00;0.62;0.00;0.00;0.62;5.10;2.77;;;21.20;27.40;;;;;;2257378;61;20440;-57
2023/12/16 02:35:27;0.00;0.00;0.62;0.00;0.00;0.62;4.83;3.00;;;21.20;27.40;;;;;;2257457;61;20389;-58
2023/12/16 02:38:11;0.00;0.00;0.62;0.00;0.00;0.62;3.80;2.83;;;21.20;27.40;;;;;;2257426;61;20397;-57
2023/12/16 02:40:57;0.00;0.00;0.62;0.00;0.00;0.62;3.23;2.77;;;21.20;27.40;;;;;;2257411;61;20394;-57
2023/12/16 02:43:42;0.00;0.00;0.62;0.00;0.00;0.62;4.77;2.70;;;21.20;27.40;;;;;;2256831;61;20370;-57
2023/12/16 02:46:27;0.00;0.00;0.62;0.00;0.00;0.62;3.83;3.10;;;21.20;27.40;;;;;;2257445;61;20937;-58
2023/12/16 02:49:23;0.00;0.00;0.62;0.00;0.00;0.62;3.83;3.00;;;21.20;27.40;;;;;;2269863;58;20369;-57
2023/12/16 02:52:08;0.00;0.00;0.62;0.00;0.00;0.62;3.90;2.60;;;21.20;27.40;;;;;;2491662;53;20382;-55
2023/12/16 02:54:53;0.00;0.00;0.62;0.00;0.00;0.62;3.57;2.80;;;21.20;27.40;;;;;;2257407;61;20822;-57
2023/12/16 02:57:39;0.00;0.00;0.62;0.00;0.00;0.62;3.10;2.80;;;21.20;27.50;;;;;;2257539;61;20393;-59
2023/12/16 03:00:23;0.00;0.00;0.62;0.00;0.00;0.62;5.10;2.83;;;21.20;27.40;;;;;;2257270;61;20394;-57
2023/12/16 03:03:09;0.00;0.00;0.62;0.00;0.00;0.62;3.80;2.73;;;21.20;27.40;;;;;;2257187;61;20405;-58
2023/12/16 03:05:53;0.00;0.00;0.62;0.00;0.00;0.62;2.73;2.40;;;21.20;27.40;;;;;;2257189;61;20409;-58
2023/12/16 03:08:38;0.00;0.00;0.62;0.00;0.00;0.62;4.87;3.10;;;21.20;27.40;;;;;;2257242;61;20445;-56
2023/12/16 03:11:23;0.00;0.00;0.62;0.00;0.00;0.62;3.73;2.63;;;21.20;27.40;;;;;;2257780;61;20390;-59
2023/12/16 03:14:09;0.00;0.00;0.62;0.00;0.00;0.62;3.53;2.57;;;21.20;27.40;;;;;;2257085;61;20465;-57
2023/12/16 03:16:54;0.00;0.00;0.62;0.00;0.00;0.62;4.50;3.00;;;21.20;27.50;;;;;;2257963;61;20796;-60
2023/12/16 03:19:38;0.00;0.00;0.62;0.00;0.00;0.62;3.27;2.57;;;21.20;27.40;;;;;;2257448;61;20388;-59
2023/12/16 03:22:23;0.00;0.00;0.62;0.00;0.00;0.62;3.37;2.47;;;21.20;27.40;;;;;;2256764;61;20454;-54
2023/12/16 03:25:08;0.00;0.00;0.62;0.00;0.00;0.62;4.20;2.90;;;21.20;27.40;;;;;;2257363;61;20478;-57
2023/12/16 03:27:52;0.00;0.00;0.62;0.00;0.00;0.62;4.00;2.80;;;21.20;27.40;;;;;;2257026;61;20401;-55
2023/12/16 03:30:40;0.00;0.00;0.62;0.00;0.00;0.62;2.63;2.33;;;21.20;27.40;;;;;;2257484;61;20387;-58
2023/12/16 03:33:25;0.00;0.00;0.62;0.00;0.00;0.62;4.60;2.90;;;21.20;27.40;;;;;;2257407;61;20870;-57
2023/12/16 03:36:10;0.00;0.00;0.62;0.00;0.00;0.62;3.40;2.63;;;21.20;27.50;;;;;;2257134;61;20462;-59
2023/12/16 03:38:56;0.00;0.00;0.62;0.00;0.00;0.62;3.07;2.30;;;21.20;27.40;;;;;;2257476;61;20416;-55
2023/12/16 03:41:41;0.00;0.00;0.62;0.00;0.00;0.62;3.40;2.63;;;21.20;27.40;;;;;;2256882;61;20382;-55
2023/12/16 03:44:26;0.00;0.00;0.62;0.00;0.00;0.62;3.87;2.30;;;21.20;27.40;;;;;;2257295;61;20365;-56
2023/12/16 03:47:12;0.00;0.00;0.62;0.00;0.00;0.62;3.70;2.67;;;21.20;27.40;;;;;;2257336;61;20433;-55
2023/12/16 03:49:56;0.00;0.00;0.62;0.00;0.00;0.62;3.00;2.57;;;21.20;27.40;;;;;;2257000;61;20370;-57
2023/12/16 03:52:41;0.00;0.00;0.62;0.00;0.00;0.62;2.67;2.10;;;21.20;27.40;;;;;;2257217;61;20928;-56
2023/12/16 03:55:25;0.00;0.00;0.62;0.00;0.00;0.62;2.93;2.40;;;21.20;27.40;;;;;;2257476;61;20374;-61
2023/12/16 03:58:10;0.00;0.00;0.62;0.00;0.00;0.62;4.07;2.63;;;21.20;27.40;;;;;;2256896;61;20454;-55
2023/12/16 04:00:55;0.00;0.00;0.62;0.00;0.00;0.62;2.80;2.40;;;21.20;27.40;;;;;;2257201;61;20466;-57
2023/12/16 04:03:41;0.00;0.00;0.62;0.00;0.00;0.62;3.23;2.40;;;21.20;27.40;;;;;;2257046;61;20493;-56
2023/12/16 04:06:25;0.00;0.00;0.62;0.00;0.00;0.62;3.90;2.33;;;21.20;27.40;;;;;;2257140;61;20370;-58
2023/12/16 04:09:10;0.00;0.00;0.62;0.00;0.00;0.62;3.77;2.43;;;21.20;27.40;;;;;;2259744;61;20766;-57
2023/12/16 04:11:54;0.00;0.00;0.62;0.00;0.00;0.62;3.20;2.40;;;21.20;27.50;;;;;;2256863;61;21005;-59
2023/12/16 04:14:40;0.00;0.00;0.62;0.00;0.00;0.62;2.93;2.10;;;21.20;27.50;;;;;;2257545;61;20461;-57
2023/12/16 04:17:24;0.00;0.00;0.62;0.00;0.00;0.62;2.53;2.00;;;21.20;27.40;;;;;;2260191;61;20453;-52
2023/12/16 04:20:11;0.00;0.00;0.62;0.00;0.00;0.62;3.60;2.20;;;21.20;28.00;;;;;;2256932;61;20398;-57
2023/12/16 04:22:56;0.00;0.00;0.62;0.00;0.00;0.62;2.60;2.10;;;21.20;27.40;;;;;;2257072;61;20370;-57
2023/12/16 04:25:40;0.00;0.00;0.62;0.00;0.00;0.62;3.53;2.53;;;21.20;27.40;;;;;;2257314;61;20373;-60
2023/12/16 04:28:25;0.00;0.00;0.62;0.00;0.00;0.62;2.53;1.97;;;21.20;27.40;;;;;;2257169;61;20775;-57
2023/12/16 04:31:14;0.00;0.00;0.62;0.00;0.00;0.62;4.00;1.93;;;21.20;27.40;;;;;;2257236;61;20905;-56
2023/12/16 04:33:58;0.00;0.00;0.62;0.00;0.00;0.62;2.83;2.13;;;21.20;27.40;;;;;;2257192;61;20430;-54
2023/12/16 04:36:44;0.00;0.00;0.62;0.00;0.00;0.62;2.70;2.10;;;21.20;27.50;;;;;;2257155;61;20893;-56
2023/12/16 04:39:29;0.00;0.00;0.62;0.00;0.00;0.62;3.00;2.17;;;21.20;27.40;;;;;;2257144;61;20505;-57
2023/12/16 04:42:13;0.00;0.00;0.62;0.00;0.00;0.62;2.90;2.07;;;21.20;27.40;;;;;;2256319;61;20365;-56
2023/12/16 04:44:58;0.00;0.00;0.62;0.00;0.00;0.62;2.70;1.93;;;21.20;27.40;;;;;;2257420;61;20412;-59
2023/12/16 04:47:42;0.00;0.00;0.62;0.00;0.00;0.62;2.90;1.70;;;21.20;27.40;;;;;;2257265;61;20408;-58
2023/12/16 04:50:27;0.00;0.00;0.62;0.00;0.00;0.62;3.20;2.40;;;21.20;27.40;;;;;;2256452;61;20421;-56
2023/12/16 04:53:13;0.00;0.00;0.62;0.00;0.00;0.62;2.40;1.97;;;21.20;27.40;;;;;;2256809;61;20373;-59
2023/12/16 04:55:57;0.00;0.00;0.62;0.00;0.00;0.62;4.37;1.90;;;21.20;27.40;;;;;;2257062;61;20374;-61
2023/12/16 04:58:42;0.00;0.00;0.62;0.00;0.00;0.62;2.57;1.83;;;21.20;27.40;;;;;;2255804;61;20788;-57
2023/12/16 05:01:26;0.00;0.00;0.62;0.00;0.00;0.62;2.90;1.90;;;21.20;27.50;;;;;;2256972;61;20385;-55
2023/12/16 05:04:11;0.00;0.00;0.62;0.00;0.00;0.62;2.87;1.80;;;21.20;27.40;;;;;;2256235;61;20875;-55
2023/12/16 05:06:55;0.00;0.00;0.62;0.00;0.00;0.62;3.20;1.73;;;21.20;27.50;;;;;;2257256;61;20393;-59
2023/12/16 05:09:41;0.00;0.00;0.62;0.00;0.00;0.62;2.50;1.70;;;21.20;27.40;;;;;;2257083;61;20389;-58
2023/12/16 05:12:25;0.00;0.00;0.62;0.00;0.00;0.62;2.97;1.90;;;21.20;27.40;;;;;;2256797;61;20370;-59
2023/12/16 05:15:11;0.00;0.00;0.62;0.00;0.00;0.62;1.93;1.50;;;21.20;27.40;;;;;;2257237;61;20413;-57
2023/12/16 05:17:56;0.00;0.00;0.62;0.00;0.00;0.62;2.37;1.60;;;21.20;27.40;;;;;;2257229;61;20493;-58
2023/12/16 05:20:40;0.00;0.00;0.62;0.00;0.00;0.62;2.50;1.73;;;21.20;27.40;;;;;;2256589;61;20435;-57
2023/12/16 05:23:25;0.00;0.00;0.62;0.00;0.00;0.62;3.53;1.97;;;21.20;27.40;;;;;;2256865;61;20412;-57
2023/12/16 05:26:11;0.00;0.00;0.62;0.00;0.00;0.62;2.50;1.67;;;21.20;27.40;;;;;;2256789;61;20489;-60
2023/12/16 05:28:55;0.00;0.00;0.62;0.00;0.00;0.62;4.13;2.30;;;21.20;27.50;;;;;;2257018;61;20365;-60
2023/12/16 05:31:40;0.00;0.00;0.62;0.00;0.00;0.62;2.50;1.70;;;21.20;27.40;;;;;;2256610;61;20386;-59
2023/12/16 05:34:25;0.00;0.00;0.62;0.00;0.00;0.62;2.87;1.87;;;21.20;27.40;;;;;;2257065;61;20369;-55
2023/12/16 05:37:09;0.00;0.00;0.62;0.00;0.00;0.62;2.63;1.77;;;21.20;27.40;;;;;;2257587;61;20369;-58
2023/12/16 05:39:54;0.00;0.00;0.62;0.00;0.00;0.62;2.70;1.60;;;21.20;27.40;;;;;;2257501;61;20857;-57
2023/12/16 05:42:40;0.00;0.00;0.62;0.00;0.00;0.62;2.37;1.70;;;21.20;27.50;;;;;;2256865;61;20917;-54
2023/12/16 05:45:25;0.00;0.00;0.62;0.00;0.00;0.62;2.20;1.63;;;21.20;27.40;;;;;;2258039;61;20894;-56
2023/12/16 05:48:11;0.00;0.00;0.62;0.00;0.00;0.62;4.80;2.03;;;21.20;27.50;;;;;;2257767;61;20428;-54
2023/12/16 05:50:56;0.00;0.00;0.62;0.00;0.00;0.62;3.23;2.00;;;21.20;27.40;;;;;;2257513;61;20865;-56
2023/12/16 05:53:40;0.00;0.00;0.62;0.00;0.00;0.62;2.20;1.40;;;21.20;27.40;;;;;;2257198;61;20833;-57
2023/12/16 05:56:25;0.00;0.00;0.62;0.00;0.00;0.62;2.27;1.63;;;21.20;27.50;;;;;;2257685;61;20366;-56
2023/12/16 05:59:11;0.00;0.00;0.62;0.00;0.00;0.62;2.00;1.43;;;21.20;27.40;;;;;;2257550;61;20361;-58
2023/12/16 06:01:55;0.00;0.00;0.62;0.00;0.00;0.62;3.67;1.77;;;21.20;27.40;;;;;;2257481;61;20967;-57
2023/12/16 06:04:42;0.00;0.00;0.62;0.00;0.00;0.62;2.13;1.60;;;21.20;27.40;;;;;;2257335;61;20370;-57
2023/12/16 06:07:27;0.00;0.00;0.62;0.00;0.00;0.62;3.60;1.70;;;21.20;28.00;;;;;;2257678;61;20532;-56
2023/12/16 06:10:12;0.00;0.00;0.62;0.00;0.00;0.62;3.53;1.87;;;21.20;27.40;;;;;;2257650;61;20377;-53
2023/12/16 06:12:57;0.00;0.00;0.62;0.00;0.00;0.62;2.50;1.50;;;21.20;27.50;;;;;;2257664;61;20392;-58
2023/12/16 06:15:43;0.00;0.00;0.62;0.00;0.00;0.62;2.23;1.63;;;21.20;27.50;;;;;;2257638;61;20816;-57
2023/12/16 06:18:28;0.00;0.00;0.62;0.00;0.00;0.62;2.60;1.50;;;21.20;27.40;;;;;;2257811;61;20961;-56
2023/12/16 06:21:13;0.00;0.00;0.62;0.00;0.00;0.62;2.60;1.70;;;21.20;27.40;;;;;;2261621;61;21007;-57
2023/12/16 06:24:00;0.00;0.00;0.62;0.00;0.00;0.62;1.60;1.20;;;21.20;27.50;;;;;;2261505;61;20369;-54
2023/12/16 06:26:45;0.00;0.00;0.62;0.00;0.00;0.62;2.93;1.73;;;21.20;28.00;;;;;;2261212;61;20900;-58
2023/12/16 06:29:30;0.00;0.00;0.62;0.00;0.00;0.62;3.17;1.70;;;21.20;27.40;;;;;;2261270;61;20358;-57
2023/12/16 06:32:16;0.00;0.00;0.62;0.00;0.00;0.62;1.83;1.37;;;21.20;27.40;;;;;;2261157;61;20364;-56
2023/12/16 06:35:01;0.00;0.00;0.62;0.00;0.00;0.62;1.93;1.30;;;21.20;27.40;;;;;;2261674;61;20416;-54
2023/12/16 06:37:46;0.00;0.00;0.62;0.00;0.00;0.62;2.27;1.47;;;21.20;27.40;;;;;;2261458;61;20775;-56
2023/12/16 06:40:33;0.00;0.00;0.62;0.00;0.00;0.62;3.07;1.80;;;21.20;27.50;;;;;;2261182;61;20400;-58
2023/12/16 06:43:18;0.00;0.00;0.62;0.00;0.00;0.62;2.00;1.30;;;21.20;27.40;;;;;;2260971;61;20453;-55
2023/12/16 06:46:03;0.00;0.00;0.62;0.00;0.00;0.62;2.40;1.70;;;21.20;27.40;;;;;;2261604;61;20452;-57
2023/12/16 06:48:49;0.00;0.00;0.62;0.00;0.00;0.62;3.47;1.83;;;21.20;27.40;;;;;;2261241;61;20419;-56
2023/12/16 06:51:33;0.00;0.00;0.62;0.00;0.00;0.62;2.30;1.80;;;21.20;27.40;;;;;;2261260;61;20385;-55
2023/12/16 06:54:19;0.00;0.00;0.62;0.00;0.00;0.62;1.70;1.10;;;21.20;27.50;;;;;;2261617;61;20361;-60
2023/12/16 06:57:04;0.00;0.00;0.62;0.00;0.00;0.62;2.23;1.70;;;21.20;27.40;;;;;;2261686;61;20365;-56
2023/12/16 06:59:49;0.00;0.00;0.62;0.00;0.00;0.62;2.60;1.40;;;21.20;27.40;;;;;;2261396;61;20388;-57
2023/12/16 07:02:33;0.00;0.00;0.62;0.00;0.00;0.62;2.80;1.60;;;21.20;27.40;;;;;;2260974;61;20928;-56
2023/12/16 07:05:19;0.00;0.00;0.62;0.00;0.00;0.62;2.10;1.20;;;21.20;27.50;;;;;;2261259;61;20888;-58
2023/12/16 07:08:04;0.00;0.00;0.62;0.00;0.00;0.62;2.20;1.40;;;21.20;27.40;;;;;;2261704;61;20400;-58
2023/12/16 07:10:48;0.00;0.00;0.62;0.00;0.00;0.62;2.43;1.40;;;21.20;27.40;;;;;;2261326;61;20451;-58
2023/12/16 07:13:33;0.00;0.00;0.62;0.00;0.00;0.62;2.77;1.50;;;21.20;27.50;;;;;;2261365;61;20447;-57
2023/12/16 07:16:17;0.00;0.00;0.62;0.00;0.00;0.62;2.33;1.53;;;21.20;27.40;;;;;;2261511;61;20369;-59
2023/12/16 07:19:02;0.00;0.00;0.62;0.00;0.00;0.62;2.20;1.50;;;21.20;27.40;;;;;;2260231;61;20462;-56
2023/12/16 07:21:48;0.00;0.00;0.62;0.00;0.00;0.62;2.07;1.17;;;21.20;27.40;;;;;;2256902;61;20484;-55
2023/12/16 07:24:32;0.00;0.00;0.62;0.00;0.00;0.62;2.67;1.63;;;21.20;27.40;;;;;;2256782;61;20875;-61
2023/12/16 07:27:17;0.00;0.00;0.62;0.00;0.00;0.62;2.60;1.57;;;21.20;27.50;;;;;;2257634;61;20366;-57
2023/12/16 07:30:02;0.00;0.00;0.62;0.00;0.00;0.62;2.03;1.30;;;21.20;27.40;;;;;;2257347;61;20474;-53
2023/12/16 07:32:47;0.00;0.00;0.62;0.00;0.00;0.62;3.47;1.67;;;21.20;27.50;;;;;;2256604;61;20370;-58
2023/12/16 07:35:33;0.00;0.00;0.62;0.00;0.00;0.62;3.33;1.73;;;21.20;27.40;;;;;;2257431;61;20373;-58
2023/12/16 07:38:19;0.00;0.00;0.62;0.00;0.00;0.62;2.43;1.57;;;21.20;27.40;;;;;;2257457;61;20361;-55
2023/12/16 07:41:03;0.00;0.00;0.62;0.00;0.00;0.62;2.23;1.43;;;21.20;27.40;;;;;;2256956;61;20441;-57
2023/12/16 07:43:48;0.00;0.00;0.62;0.00;0.00;0.62;4.00;1.60;;;21.20;27.40;;;;;;2257153;61;20483;-58
2023/12/16 07:46:33;0.00;0.00;0.62;0.00;0.00;0.62;2.87;1.60;;;21.20;27.40;;;;;;2257456;61;20772;-57
2023/12/16 07:49:19;0.00;0.00;0.62;0.00;0.00;0.62;2.57;1.60;;;21.20;27.40;;;;;;2257268;61;20374;-56
2023/12/16 07:52:04;0.00;0.00;0.62;0.00;0.00;0.62;2.73;1.70;;;21.20;27.40;;;;;;2257176;61;20409;-55
2023/12/16 07:54:50;0.00;0.00;0.62;0.00;0.00;0.62;2.20;1.60;;;21.20;27.40;;;;;;2256876;61;20936;-58
2023/12/16 07:57:35;0.00;0.00;0.62;0.00;0.00;0.62;2.83;1.90;;;21.20;27.40;;;;;;2257547;61;20777;-57
2023/12/16 08:00:20;0.00;0.00;0.62;0.00;0.00;0.62;4.83;3.20;;;21.20;27.40;;;;;;2257358;61;20401;-57
2023/12/16 08:03:04;0.00;0.00;0.62;0.00;0.00;0.62;2.90;1.90;;;21.20;27.40;;;;;;2256699;61;20460;-56
2023/12/16 08:05:49;0.00;0.00;0.62;0.00;0.00;0.62;2.50;1.83;;;21.20;27.40;;;;;;2257358;61;20382;-57
2023/12/16 08:08:34;0.00;0.00;0.62;0.00;0.00;0.62;2.70;1.80;;;21.20;27.40;;;;;;2256486;61;20959;-58
2023/12/16 08:11:20;0.00;0.00;0.62;0.00;0.00;0.62;4.00;2.10;;;21.20;27.40;;;;;;2256425;61;20382;-55
2023/12/16 08:14:06;0.00;0.00;0.62;0.00;0.00;0.62;3.07;2.00;;;21.20;27.30;;;;;;2256903;61;20773;-57
2023/12/16 08:16:51;0.00;0.00;0.62;0.00;0.00;0.62;4.00;2.17;;;21.20;27.30;;;;;;2255877;61;20868;-57
2023/12/16 08:19:35;0.00;0.00;0.62;0.00;0.00;0.62;2.53;1.80;;;21.20;27.30;;;;;;2258117;61;20389;-58
2023/12/16 08:22:21;0.00;0.00;0.62;0.00;0.00;0.62;2.90;1.70;;;21.20;27.40;;;;;;2260206;61;20820;-54
2023/12/16 08:25:08;0.00;0.00;0.62;0.00;0.00;0.62;3.47;2.10;;;21.20;27.40;;;;;;2260367;61;20365;-60
2023/12/16 08:27:54;0.00;0.00;0.62;0.00;0.00;0.62;4.10;2.40;;;21.20;27.30;;;;;;2260467;61;20369;-57
2023/12/16 08:30:38;0.00;0.00;0.62;0.00;0.00;0.62;2.70;1.93;;;21.20;27.30;;;;;;2260649;61;20928;-59
2023/12/16 08:33:23;0.00;0.00;0.62;0.00;0.00;0.62;3.20;1.80;;;21.20;27.40;;;;;;2260121;61;20389;-57
2023/12/16 08:36:08;0.00;0.00;0.62;0.00;0.00;0.62;2.90;1.97;;;21.20;27.30;;;;;;2260859;61;20415;-56
2023/12/16 08:38:53;0.00;0.00;0.62;0.00;0.00;0.62;3.63;2.00;;;21.20;27.30;;;;;;2260112;61;20385;-57
2023/12/16 08:41:37;0.00;0.00;0.62;0.00;0.00;0.62;2.70;2.00;;;21.20;27.40;;;;;;2260031;61;20934;-58
2023/12/16 08:44:23;0.00;0.00;0.62;0.00;0.00;0.62;4.63;2.20;;;21.20;27.40;;;;;;2260415;61;20361;-58
2023/12/16 08:47:08;0.00;0.00;0.62;0.00;0.00;0.62;3.53;2.30;;;21.20;27.40;;;;;;2260243;61;20818;-56
2023/12/16 08:49:53;0.00;0.00;0.62;0.00;0.00;0.62;4.03;2.47;;;21.20;27.40;;;;;;2260225;61;20357;-57
2023/12/16 08:52:38;0.00;0.00;0.62;0.00;0.00;0.62;2.43;1.70;;;21.20;27.40;;;;;;2256970;61;20368;-57
2023/12/16 08:55:24;0.00;0.00;0.62;0.00;0.00;0.62;2.60;1.93;;;21.20;27.40;;;;;;2260171;61;20804;-57
2023/12/16 08:58:09;0.00;0.00;0.62;0.00;0.00;0.62;2.87;2.23;;;21.20;27.40;;;;;;2260698;61;20473;-59
2023/12/16 09:00:55;0.00;0.00;0.62;0.00;0.00;0.62;3.07;1.77;;;21.20;27.30;;;;;;2259776;61;20384;-59
2023/12/16 09:03:42;0.00;0.00;0.62;0.00;0.00;0.62;2.83;2.07;;;21.20;27.30;;;;;;2260120;61;20457;-58
2023/12/16 09:06:27;0.00;0.00;0.62;0.00;0.00;0.62;2.80;1.93;;;21.20;27.30;;;;;;2260366;61;20411;-57
2023/12/16 09:09:11;0.00;0.00;0.62;0.00;0.00;0.62;4.00;2.00;;;21.20;27.30;;;;;;2260245;61;20373;-57
2023/12/16 09:11:56;0.00;0.00;0.62;0.00;0.00;0.62;4.17;2.53;;;21.20;27.30;;;;;;2260095;61;20471;-61
2023/12/16 09:14:41;0.00;0.00;0.62;0.00;0.00;0.62;2.67;1.63;;;21.20;27.30;;;;;;2260487;61;20656;-58
2023/12/16 09:17:27;0.00;0.00;0.62;0.00;0.00;0.62;4.13;2.60;;;21.20;27.30;;;;;;2260023;61;20906;-60
2023/12/16 09:20:12;0.00;0.00;0.62;0.00;0.00;0.62;4.40;2.37;;;21.20;27.80;;;;;;2259370;61;20405;-58
2023/12/16 09:22:58;0.00;0.00;0.62;0.00;0.00;0.62;3.57;1.80;;;21.20;27.30;;;;;;2255662;61;20438;-58
2023/12/16 09:25:44;0.00;0.00;0.62;0.00;0.00;0.62;4.43;1.93;;;21.20;27.30;;;;;;2256403;61;20369;-60
2023/12/16 09:28:29;0.00;0.00;0.62;0.00;0.00;0.62;4.10;2.13;;;21.20;27.40;;;;;;2256370;61;20397;-56
2023/12/16 09:31:13;0.00;0.00;0.62;0.00;0.00;0.62;5.50;2.63;;;21.20;27.30;;;;;;2255942;61;20397;-64
2023/12/16 09:33:59;0.00;0.00;0.62;0.00;0.00;0.62;3.40;2.20;;;21.20;27.30;;;;;;2256239;61;20707;-57
2023/12/16 09:36:44;0.00;0.00;0.62;0.00;0.00;0.62;3.13;2.07;;;21.20;27.30;;;;;;2256328;61;20374;-58
2023/12/16 09:39:28;0.00;0.00;0.62;0.00;0.00;0.62;3.03;2.10;;;21.20;27.30;;;;;;2255919;61;20362;-59
2023/12/16 09:42:14;0.00;0.00;0.62;0.00;0.00;0.62;3.47;2.30;;;21.20;27.30;;;;;;2255872;61;20362;-59
2023/12/16 09:44:58;0.00;0.00;0.62;0.00;0.00;0.62;3.77;2.20;;;21.20;27.30;;;;;;2256048;61;20370;-59
2023/12/16 09:47:43;0.00;0.00;0.62;0.00;0.00;0.62;3.30;1.90;;;21.20;27.20;;;;;;2256289;61;20832;-57
2023/12/16 09:50:32;0.00;0.00;0.62;0.00;0.00;0.62;4.67;2.93;;;21.20;27.30;;;;;;2256255;61;20914;-56
2023/12/16 09:53:16;0.00;0.00;0.62;0.00;0.00;0.62;5.20;2.23;;;21.20;27.20;;;;;;2255789;61;20370;-57
2023/12/16 09:56:01;0.00;0.00;0.62;0.00;0.00;0.62;2.80;2.00;;;21.20;27.20;;;;;;2256151;61;20381;-57
2023/12/16 09:58:47;0.00;0.00;0.62;0.00;0.00;0.62;4.10;2.33;;;21.20;27.20;;;;;;2256209;61;20473;-60
2023/12/16 10:01:32;0.00;0.00;0.62;0.00;0.00;0.62;3.60;2.10;;;21.30;27.30;;;;;;2255472;61;20393;-57
2023/12/16 10:04:17;0.00;0.00;0.62;0.00;0.00;0.62;2.50;2.03;;;21.20;27.20;;;;;;2256362;61;20416;-59
2023/12/16 10:07:03;0.00;0.00;0.62;0.00;0.00;0.62;5.10;2.67;;;21.30;27.20;;;;;;2256123;61;20358;-56
2023/12/16 10:09:49;0.00;0.00;0.62;0.00;0.00;0.62;3.10;1.97;;;21.30;27.20;;;;;;2255774;61;20373;-52
2023/12/16 10:12:34;0.00;0.00;0.62;0.00;0.00;0.62;3.53;2.33;;;21.30;27.30;;;;;;2255803;61;20365;-57
2023/12/16 10:15:30;0.00;0.00;0.62;0.00;0.00;0.62;5.60;3.50;;;21.20;27.20;;;;;;2255842;61;20454;-57
2023/12/16 10:18:14;0.00;0.00;0.62;0.00;0.00;0.62;4.13;2.60;;;21.30;27.30;;;;;;2256465;61;20775;-56
2023/12/16 10:20:59;0.00;0.00;0.62;0.00;0.00;0.62;5.60;3.07;;;21.30;27.30;;;;;;2256729;61;20826;-55
2023/12/16 10:23:45;0.00;0.00;0.62;0.00;0.00;0.62;4.50;3.00;;;21.30;27.30;;;;;;2256200;61;20358;-55
2023/12/16 10:26:31;0.00;0.00;0.62;0.00;0.00;0.62;5.23;3.63;;;21.30;27.20;;;;;;2257050;61;20373;-60
2023/12/16 10:29:19;0.00;0.00;0.62;0.00;0.00;0.62;4.60;3.30;;;21.20;27.20;;;;;;2256880;61;20507;-57
2023/12/16 10:32:07;0.00;0.00;0.62;0.00;0.00;0.62;6.53;3.30;;;21.30;27.20;;;;;;2256084;61;20521;-58
2023/12/16 10:34:52;0.00;0.00;0.62;0.00;0.00;0.62;4.93;3.50;;;21.30;27.20;;;;;;2256775;61;20378;-58
2023/12/16 10:37:47;0.00;0.00;0.62;0.00;0.00;0.62;4.40;2.93;;;21.30;27.20;;;;;;2256615;61;20409;-60
2023/12/16 10:40:37;0.00;0.00;0.62;0.00;0.00;0.62;6.43;4.30;;;21.30;27.20;;;;;;2256590;61;20389;-57
2023/12/16 10:43:22;0.00;0.00;0.62;0.00;0.00;0.62;5.33;3.73;;;21.30;27.20;;;;;;2256453;61;20365;-55
2023/12/16 10:46:07;0.00;0.00;0.62;0.00;0.00;0.62;5.80;3.67;;;21.30;27.20;;;;;;2256503;61;20357;-57
2023/12/16 10:48:58;0.00;0.00;0.62;0.00;0.00;0.62;5.23;3.63;;;21.30;27.30;;;;;;2256906;61;20377;-55
2023/12/16 10:51:49;0.00;0.00;0.62;0.00;0.00;0.62;6.37;4.13;;;21.30;27.20;;;;;;2256068;61;20417;-57